createdAt,value
2019-03-27T08:51:28.034Z,12.37
2019-03-27T08:53:59.370Z,13.33
2019-03-27T08:56:29.434Z,9.57
2019-03-27T08:58:59.392Z,10.63
2019-03-27T09:01:29.406Z,10.43
2019-03-27T09:04:01.433Z,11.40
2019-03-27T09:06:34.086Z,9.97
2019-03-27T09:09:03.622Z,12.43
2019-03-27T09:11:33.662Z,11.93
2019-03-27T09:14:03.758Z,11.27
2019-03-27T09:16:33.779Z,12.90
2019-03-27T09:19:03.749Z,12.87
2019-03-27T09:21:33.919Z,10.17
2019-03-27T09:24:04.021Z,10.63
2019-03-27T09:26:34.064Z,11.47
2019-03-27T09:29:04.069Z,11.70
2019-03-27T09:31:44.090Z,10.50
2019-03-27T09:34:07.365Z,9.67
2019-03-27T09:36:37.308Z,13.23
2019-03-27T09:39:12.546Z,11.03
2019-03-27T09:41:42.553Z,10.50
2019-03-27T09:44:14.070Z,8.43
2019-03-27T09:46:44.035Z,12.17
2019-03-27T09:49:15.249Z,12.53
2019-03-27T09:51:45.556Z,11.83
2019-03-27T09:54:16.957Z,9.93
2019-03-27T09:56:47.142Z,9.93
2019-03-27T09:59:18.760Z,10.57
2019-03-27T10:01:48.761Z,9.40
2019-03-27T10:04:18.796Z,13.50
2019-03-27T10:06:50.021Z,12.33
2019-03-27T10:09:20.070Z,9.93
2019-03-27T10:11:50.047Z,11.17
2019-03-27T10:14:21.542Z,8.73
2019-03-27T10:16:51.635Z,9.90
2019-03-27T10:19:22.900Z,8.90
2019-03-27T10:21:54.847Z,10.33
2019-03-27T10:24:24.918Z,10.43
2019-03-27T10:26:54.901Z,11.03
2019-03-27T10:29:25.289Z,10.77
2019-03-27T10:31:55.628Z,12.33
2019-03-27T10:34:25.627Z,12.17
2019-03-27T10:36:55.680Z,29.03
2019-03-27T10:39:25.600Z,13.57
2019-03-27T10:41:55.613Z,12.20
2019-03-27T10:44:27.785Z,8.53
2019-03-27T10:46:57.802Z,7.80
2019-03-27T10:49:27.906Z,9.70
2019-03-27T10:51:57.907Z,13.30
2019-03-27T10:54:28.388Z,10.03
2019-03-27T10:56:58.779Z,14.90
2019-03-27T10:59:28.887Z,12.40
2019-03-27T11:01:58.965Z,13.00
2019-03-27T11:04:28.992Z,9.77
2019-03-27T11:06:59.143Z,8.67
2019-03-27T11:09:31.926Z,8.37
2019-03-27T11:12:01.881Z,11.23
2019-03-27T11:14:37.809Z,8.57
2019-03-27T11:17:03.706Z,6.00
2019-03-27T11:19:33.867Z,6.27
2019-03-27T11:22:04.013Z,6.63
2019-03-27T11:24:33.892Z,6.53
2019-03-27T11:27:03.832Z,8.97
2019-03-27T11:29:33.891Z,6.50
2019-03-27T11:32:03.899Z,4.67
2019-03-27T11:34:33.860Z,7.50
2019-03-27T11:37:03.896Z,5.53
2019-03-27T11:39:33.929Z,5.30
2019-03-27T11:42:04.035Z,7.70
2019-03-27T11:44:34.071Z,4.97
2019-03-27T11:47:03.997Z,6.67
2019-03-27T11:49:33.900Z,5.93
2019-03-27T11:52:03.876Z,6.33
2019-03-27T11:54:33.936Z,6.60
2019-03-27T11:57:04.294Z,5.23
2019-03-27T11:59:34.303Z,6.53
2019-03-27T12:02:04.318Z,5.40
2019-03-27T12:04:34.261Z,4.73
2019-03-27T12:07:04.212Z,5.03
2019-03-27T12:09:34.222Z,7.60
2019-03-27T12:12:04.250Z,7.20
2019-03-27T12:14:34.306Z,4.93
2019-03-27T12:17:04.267Z,4.73
2019-03-27T12:19:34.159Z,6.43
2019-03-27T12:22:04.236Z,10.37
2019-03-27T12:24:34.209Z,4.87
2019-03-27T12:27:04.203Z,4.77
2019-03-27T12:29:34.192Z,3.73
2019-03-27T12:32:04.214Z,5.17
2019-03-27T12:34:36.743Z,4.63
2019-03-27T12:37:05.856Z,9.77
2019-03-27T12:39:35.759Z,10.17
2019-03-27T12:42:05.681Z,7.77
2019-03-27T12:44:35.697Z,5.13
2019-03-27T12:47:05.618Z,8.60
2019-03-27T12:49:35.609Z,5.53
2019-03-27T12:52:05.727Z,8.77
2019-03-27T12:54:35.762Z,4.60
2019-03-27T12:57:05.704Z,5.87
2019-03-27T12:59:36.756Z,4.77
2019-03-27T13:02:06.862Z,8.60
2019-03-27T13:04:36.857Z,5.60
2019-03-27T13:07:06.888Z,6.80
2019-03-27T13:09:36.841Z,9.30
2019-03-27T13:12:06.786Z,5.27
2019-03-27T13:14:36.752Z,5.97
2019-03-27T13:17:06.638Z,5.73
2019-03-27T13:19:36.601Z,4.33
2019-03-27T13:22:06.847Z,7.00
2019-03-27T13:24:36.734Z,7.80
2019-03-27T13:27:07.934Z,5.00
2019-03-27T13:29:37.934Z,5.47
2019-03-27T13:32:07.915Z,7.07
2019-03-27T13:34:37.950Z,5.07
2019-03-27T13:37:07.975Z,6.50
2019-03-27T13:39:37.885Z,6.03
2019-03-27T13:42:09.020Z,6.77
2019-03-27T13:44:39.181Z,7.50
2019-03-27T13:47:09.150Z,8.60
2019-03-27T13:49:39.280Z,4.97
2019-03-27T13:52:09.673Z,4.30
2019-03-27T13:54:39.632Z,6.10
2019-03-27T13:57:09.582Z,6.97
2019-03-27T13:59:39.613Z,5.83
2019-03-27T14:02:10.090Z,7.10
2019-03-27T14:04:41.517Z,7.30
2019-03-27T14:07:11.716Z,5.93
2019-03-27T14:09:41.700Z,8.47
2019-03-27T14:12:11.629Z,8.20
2019-03-27T14:14:50.365Z,7.07
2019-03-27T14:17:13.581Z,5.73
2019-03-27T14:19:43.482Z,5.80
2019-03-27T14:22:13.546Z,6.30
2019-03-27T14:24:43.464Z,6.13
2019-03-27T14:27:13.423Z,6.43
2019-03-27T14:29:43.419Z,7.33
2019-03-27T14:32:13.319Z,6.47
2019-03-27T14:34:43.231Z,5.23
2019-03-27T14:37:13.259Z,9.70
2019-03-27T14:39:43.232Z,9.23
2019-03-27T14:42:14.697Z,8.17
2019-03-27T14:44:45.456Z,4.73
2019-03-27T14:47:15.367Z,6.40
2019-03-27T14:49:45.307Z,6.77
2019-03-27T14:52:15.505Z,5.80
2019-03-27T14:54:47.338Z,9.73
2019-03-27T14:57:20.723Z,9.90
2019-03-27T14:59:50.817Z,12.30
2019-03-27T15:02:20.926Z,15.30
2019-03-27T15:04:53.216Z,8.33
2019-03-27T15:07:23.135Z,10.57
2019-03-27T15:09:53.046Z,4.73
2019-03-27T15:12:23.095Z,11.83
2019-03-27T15:14:54.574Z,8.63
2019-03-27T15:17:24.609Z,10.33
2019-03-27T15:19:54.635Z,7.07
2019-03-27T15:22:24.589Z,9.00
2019-03-27T15:24:54.429Z,6.53
2019-03-27T15:27:24.370Z,8.23
2019-03-27T15:29:54.375Z,7.60
2019-03-27T15:32:24.366Z,6.27
2019-03-27T15:34:54.396Z,6.13
2019-03-27T15:37:24.311Z,6.20
2019-03-27T15:39:54.211Z,9.50
2019-03-27T15:42:24.463Z,10.53
2019-03-27T15:44:54.435Z,11.53
2019-03-27T15:47:24.450Z,4.27
2019-03-27T15:49:54.478Z,10.50
2019-03-27T15:52:35.814Z,9.90
2019-03-27T15:54:56.220Z,9.17
2019-03-27T15:57:26.303Z,9.57
2019-03-27T15:59:56.296Z,7.57
2019-03-27T16:02:26.323Z,5.43
2019-03-27T16:04:56.532Z,8.87
2019-03-27T16:07:26.840Z,9.00
2019-03-27T16:09:56.834Z,8.47
2019-03-27T16:12:26.946Z,6.17
2019-03-27T16:14:56.979Z,7.50
2019-03-27T16:17:26.966Z,11.80
2019-03-27T16:19:57.048Z,12.03
2019-03-27T16:22:26.967Z,9.97
2019-03-27T16:24:56.879Z,8.88
2019-03-27T16:27:26.791Z,9.87
2019-03-27T16:29:56.710Z,7.97
2019-03-27T16:32:26.755Z,8.73
2019-03-27T16:34:56.842Z,6.27
2019-03-27T16:37:26.809Z,6.23
2019-03-27T16:39:56.734Z,9.50
2019-03-27T16:42:26.690Z,11.53
2019-03-27T16:44:56.561Z,7.97
2019-03-27T16:47:26.518Z,7.57
2019-03-27T16:49:56.525Z,8.27
2019-03-27T16:52:26.446Z,7.90
2019-03-27T16:54:56.464Z,7.83
2019-03-27T16:57:26.505Z,9.00
2019-03-27T16:59:56.574Z,9.63
2019-03-27T17:02:26.536Z,8.90
2019-03-27T17:04:56.494Z,8.70
2019-03-27T17:07:27.002Z,8.93
2019-03-27T17:09:57.012Z,6.87
2019-03-27T17:12:26.939Z,9.87
2019-03-27T17:14:56.831Z,5.37
2019-03-27T17:17:26.747Z,8.07
2019-03-27T17:19:56.694Z,7.27
2019-03-27T17:22:26.639Z,7.33
2019-03-27T17:24:56.587Z,10.57
2019-03-27T17:27:26.921Z,11.03
2019-03-27T17:29:59.756Z,5.13
2019-03-27T17:32:31.267Z,13.07
2019-03-27T17:35:01.353Z,13.47
2019-03-27T17:37:31.229Z,11.87
2019-03-27T17:40:01.221Z,4.13
2019-03-27T17:42:31.208Z,7.67
2019-03-27T17:45:01.247Z,10.63
2019-03-27T17:47:31.263Z,9.50
2019-03-27T17:50:01.214Z,10.03
2019-03-27T17:52:31.198Z,8.20
2019-03-27T17:55:01.166Z,14.03
2019-03-27T17:57:31.224Z,16.20
2019-03-27T18:00:01.111Z,10.80
2019-03-27T18:02:31.140Z,9.27
2019-03-27T18:05:01.157Z,8.90
2019-03-27T18:07:31.148Z,10.53
2019-03-27T18:10:01.582Z,9.20
2019-03-27T18:12:31.544Z,6.07
2019-03-27T18:15:01.529Z,13.23
2019-03-27T18:17:31.451Z,13.27
2019-03-27T18:20:01.415Z,11.40
2019-03-27T18:22:31.423Z,7.33
2019-03-27T18:25:01.472Z,7.97
2019-03-27T18:27:31.480Z,11.27
2019-03-27T18:30:01.474Z,12.83
2019-03-27T18:32:31.520Z,6.60
2019-03-27T18:35:01.457Z,7.90
2019-03-27T18:37:31.466Z,10.67
2019-03-27T18:40:01.518Z,11.80
2019-03-27T18:42:31.427Z,7.07
2019-03-27T18:45:01.409Z,7.43
2019-03-27T18:47:31.469Z,13.47
2019-03-27T18:50:01.368Z,7.97
2019-03-27T18:52:31.268Z,9.10
2019-03-27T18:55:01.226Z,7.47
2019-03-27T18:57:31.312Z,8.10
2019-03-27T19:00:01.257Z,8.53
2019-03-27T19:02:31.297Z,10.03
2019-03-27T19:05:01.191Z,8.77
2019-03-27T19:07:31.132Z,8.80
2019-03-27T19:10:01.294Z,12.30
2019-03-27T19:12:31.786Z,9.03
2019-03-27T19:15:01.767Z,10.83
2019-03-27T19:17:31.707Z,12.33
2019-03-27T19:20:01.631Z,7.80
2019-03-27T19:22:31.563Z,8.80
2019-03-27T19:25:03.315Z,9.43
2019-03-27T19:27:35.071Z,10.67
2019-03-27T19:30:06.036Z,9.90
2019-03-27T19:32:36.224Z,10.53
2019-03-27T19:35:06.339Z,9.37
2019-03-27T19:37:36.451Z,8.60
2019-03-27T19:40:07.437Z,8.70
2019-03-27T19:42:37.419Z,9.60
2019-03-27T19:45:07.893Z,12.60
2019-03-27T19:47:37.944Z,8.07
2019-03-27T19:50:08.035Z,11.17
2019-03-27T19:52:38.100Z,11.53
2019-03-27T19:55:08.382Z,15.80
2019-03-27T19:57:38.540Z,10.93
2019-03-27T20:00:09.743Z,10.63
2019-03-27T20:02:39.797Z,15.70
2019-03-27T20:05:09.800Z,10.93
2019-03-27T20:07:39.709Z,8.90
2019-03-27T20:10:10.118Z,13.20
2019-03-27T20:12:40.349Z,9.13
2019-03-27T20:15:12.931Z,12.50
2019-03-27T20:17:42.538Z,14.40
2019-03-27T20:20:14.446Z,20.63
2019-03-27T20:22:44.609Z,17.83
2019-03-27T20:25:16.032Z,12.50
2019-03-27T20:27:51.064Z,21.33
2019-03-27T20:30:22.101Z,10.57
2019-03-27T20:32:53.588Z,13.50
2019-03-27T20:35:23.577Z,20.27
2019-03-27T20:37:54.804Z,10.53
2019-03-27T20:40:43.624Z,12.17
2019-03-27T20:43:15.731Z,16.63
2019-03-27T20:45:45.624Z,13.60
2019-03-27T20:48:15.583Z,18.90
2019-03-27T20:50:45.690Z,17.20
2019-03-27T20:53:15.773Z,19.47
2019-03-27T20:55:47.438Z,12.07
2019-03-27T20:58:17.550Z,17.30
2019-03-27T21:00:47.506Z,16.93
2019-03-27T21:03:19.465Z,12.90
2019-03-27T21:05:52.293Z,10.20
2019-03-27T21:08:22.299Z,15.10
2019-03-27T21:10:52.534Z,9.20
2019-03-27T21:13:22.908Z,12.57
2019-03-27T21:15:52.924Z,8.70
2019-03-27T21:18:24.790Z,12.83
2019-03-27T21:20:55.118Z,17.93
2019-03-27T21:23:25.110Z,15.80
2019-03-27T21:25:56.286Z,14.93
2019-03-27T21:28:26.323Z,13.67
2019-03-27T21:30:57.608Z,14.97
2019-03-27T21:33:27.624Z,16.70
2019-03-27T21:35:59.103Z,15.70
2019-03-27T21:38:29.203Z,11.63
2019-03-27T21:40:59.404Z,14.47
2019-03-27T21:43:29.413Z,13.23
2019-03-27T21:45:59.429Z,16.43
2019-03-27T21:48:29.458Z,13.57
2019-03-27T21:50:59.580Z,11.53
2019-03-27T21:53:29.669Z,19.03
2019-03-27T21:55:59.654Z,15.23
2019-03-27T21:58:31.520Z,11.97
2019-03-27T22:01:01.425Z,14.07
2019-03-27T22:03:31.376Z,23.97
2019-03-27T22:06:01.389Z,16.43
2019-03-27T22:08:31.353Z,20.50
2019-03-27T22:11:01.259Z,18.30
2019-03-27T22:13:31.415Z,10.13
2019-03-27T22:16:03.718Z,14.53
2019-03-27T22:18:33.708Z,27.40
2019-03-27T22:21:03.727Z,22.57
2019-03-27T22:23:33.603Z,12.47
2019-03-27T22:26:03.536Z,23.53
2019-03-27T22:28:33.890Z,13.67
2019-03-27T22:31:03.885Z,15.10
2019-03-27T22:33:33.870Z,14.97
2019-03-27T22:36:04.054Z,17.43
2019-03-27T22:38:34.030Z,14.30
2019-03-27T22:41:04.012Z,14.87
2019-03-27T22:43:33.982Z,13.47
2019-03-27T22:46:03.929Z,14.40
2019-03-27T22:48:33.825Z,18.50
2019-03-27T22:51:03.773Z,13.37
2019-03-27T22:53:33.677Z,22.13
2019-03-27T22:56:03.682Z,14.87
2019-03-27T22:58:34.012Z,15.50
2019-03-27T23:01:04.069Z,16.37
2019-03-27T23:03:33.983Z,16.77
2019-03-27T23:06:04.048Z,19.43
2019-03-27T23:08:34.025Z,14.70
2019-03-27T23:11:04.041Z,8.53
2019-03-27T23:13:34.086Z,9.63
2019-03-27T23:16:04.083Z,14.03
2019-03-27T23:18:34.128Z,20.27
2019-03-27T23:21:04.369Z,13.90
2019-03-27T23:23:34.296Z,15.40
2019-03-27T23:26:04.329Z,15.97
2019-03-27T23:28:34.333Z,12.70
2019-03-27T23:31:04.336Z,15.63
2019-03-27T23:33:34.296Z,18.70
2019-03-27T23:36:04.307Z,21.20
2019-03-27T23:38:34.258Z,17.60
2019-03-27T23:41:04.279Z,14.30
2019-03-27T23:43:36.088Z,13.87
2019-03-27T23:46:06.188Z,18.60
2019-03-27T23:48:36.175Z,18.63
2019-03-27T23:51:06.196Z,15.53
2019-03-27T23:53:37.368Z,14.13
2019-03-27T23:56:16.576Z,17.10
2019-03-27T23:58:39.495Z,12.50
